Time;durP1;ratioP1;P1;durP2;ratioP2;P2;SDS_P1;SDS_P2;PMS_P1;PMS_P2;Temp;Humidity;BMP_temperature;BMP_pressure;BME280_temperature;BME280_humidity;BME280_pressure;Samples;Min_cycle;Max_cycle;Signal;HPM_P1;HPM_P2
2023/07/16 00:00:31;;;;;;;2.67;1.15;;;16.40;99.90;;;;;;5003183;28;20060;-79
2023/07/16 00:02:58;;;;;;;1.67;0.95;;;16.30;99.90;;;;;;5007718;28;20048;-79
2023/07/16 00:05:25;;;;;;;2.13;0.85;;;16.40;99.90;;;;;;5008337;28;20140;-79
2023/07/16 00:07:51;;;;;;;2.92;1.02;;;16.40;99.90;;;;;;5003665;28;20512;-80
2023/07/16 00:10:18;;;;;;;2.10;1.02;;;16.30;99.90;;;;;;5005362;28;20045;-78
2023/07/16 00:12:45;;;;;;;3.45;1.33;;;16.30;99.90;;;;;;5021719;28;20396;-79
2023/07/16 00:15:13;;;;;;;3.53;1.00;;;16.30;99.90;;;;;;5005616;28;20277;-79
2023/07/16 00:17:39;;;;;;;3.00;1.02;;;16.30;99.90;;;;;;4987494;28;20699;-79
2023/07/16 00:20:07;;;;;;;3.38;1.30;;;16.30;99.90;;;;;;4994757;28;20094;-79
2023/07/16 00:22:34;;;;;;;2.80;1.33;;;16.30;99.90;;;;;;5013341;28;20100;-79
2023/07/16 00:25:00;;;;;;;2.30;1.13;;;16.40;99.90;;;;;;5015818;28;20045;-79
2023/07/16 00:27:27;;;;;;;3.03;1.27;;;16.40;99.90;;;;;;4999423;28;20511;-79
2023/07/16 00:29:54;;;;;;;2.22;0.98;;;16.40;99.90;;;;;;4988798;28;20446;-79
2023/07/16 00:32:21;;;;;;;2.20;1.00;;;16.40;99.90;;;;;;5002740;28;20103;-79
2023/07/16 00:34:48;;;;;;;2.15;1.13;;;16.40;99.90;;;;;;5022390;28;20102;-79
2023/07/16 00:37:14;;;;;;;3.50;1.02;;;16.40;99.90;;;;;;5041593;28;20048;-79
2023/07/16 00:39:41;;;;;;;3.72;1.67;;;16.40;99.90;;;;;;4997230;28;20061;-80
2023/07/16 00:42:08;;;;;;;2.78;1.10;;;16.40;99.90;;;;;;4997792;28;20056;-80
2023/07/16 00:44:35;;;;;;;3.58;1.30;;;16.30;99.90;;;;;;5007853;28;20057;-80
2023/07/16 00:47:02;;;;;;;4.35;1.27;;;16.30;99.90;;;;;;4976150;28;20670;-80
2023/07/16 00:49:29;;;;;;;4.05;1.38;;;16.30;99.90;;;;;;4998958;28;20059;-80
2023/07/16 00:51:56;;;;;;;2.72;1.20;;;16.20;99.90;;;;;;5024123;28;20049;-79
2023/07/16 00:54:23;;;;;;;2.42;1.23;;;16.20;99.90;;;;;;5003198;28;20537;-79
2023/07/16 00:56:49;;;;;;;3.95;1.52;;;16.20;99.90;;;;;;4988719;28;20087;-79
2023/07/16 00:59:16;;;;;;;4.88;1.65;;;16.20;99.90;;;;;;5033655;28;20076;-79
2023/07/16 01:01:43;;;;;;;2.40;0.90;;;16.20;99.90;;;;;;5003756;28;20119;-78
2023/07/16 01:04:10;;;;;;;2.08;1.00;;;16.10;99.90;;;;;;5002654;28;20562;-79
2023/07/16 01:06:41;;;;;;;2.17;1.10;;;16.10;99.90;;;;;;4985682;28;20053;-79
2023/07/16 01:09:16;;;;;;;2.75;1.20;;;16.10;99.90;;;;;;5023711;28;20056;-79
2023/07/16 01:11:43;;;;;;;2.38;1.10;;;16.10;99.90;;;;;;5003571;28;20048;-79
2023/07/16 01:14:10;;;;;;;3.38;1.35;;;16.10;99.90;;;;;;5003172;28;20064;-79
2023/07/16 01:16:37;;;;;;;2.22;1.20;;;16.10;99.90;;;;;;4988205;28;20691;-79
2023/07/16 01:19:05;;;;;;;4.00;1.15;;;16.10;99.90;;;;;;5003088;28;20061;-79
2023/07/16 01:21:51;;;;;;;2.65;1.30;;;16.10;99.90;;;;;;4990972;28;20550;-79
2023/07/16 01:24:36;;;;;;;2.88;1.48;;;16.10;99.90;;;;;;5019545;28;20059;-79
2023/07/16 01:27:30;;;;;;;4.45;1.38;;;16.10;99.90;;;;;;5013538;28;20041;-79
2023/07/16 01:30:04;;;;;;;3.65;1.42;;;16.10;99.90;;;;;;5001631;28;20084;-79
2023/07/16 01:32:31;;;;;;;1.88;1.00;;;16.10;99.90;;;;;;4990717;28;20053;-79
2023/07/16 01:34:58;;;;;;;3.75;1.23;;;16.10;99.90;;;;;;5000584;28;20075;-79
2023/07/16 01:37:25;;;;;;;3.28;1.38;;;16.10;99.90;;;;;;5025098;28;20061;-80
2023/07/16 01:39:52;;;;;;;5.97;1.50;;;16.10;99.90;;;;;;4990023;28;20069;-79
2023/07/16 01:42:19;;;;;;;3.63;1.25;;;16.00;99.90;;;;;;4999640;28;20049;-79
2023/07/16 01:44:45;;;;;;;3.60;1.45;;;16.00;99.90;;;;;;4974532;28;20054;-80
2023/07/16 01:47:37;;;;;;;3.22;1.40;;;16.10;99.90;;;;;;5005199;28;20473;-79
2023/07/16 01:50:05;;;;;;;3.40;1.25;;;16.10;99.90;;;;;;5034987;28;20544;-79
2023/07/16 01:52:31;;;;;;;3.65;1.55;;;16.10;99.90;;;;;;5007110;28;20115;-79
2023/07/16 01:54:58;;;;;;;3.67;1.50;;;16.10;99.90;;;;;;5010893;28;20102;-79
2023/07/16 01:57:25;;;;;;;2.42;1.10;;;16.10;99.90;;;;;;4987908;28;20054;-79
2023/07/16 01:59:52;;;;;;;2.28;1.10;;;16.10;99.90;;;;;;5029674;28;20061;-79
2023/07/16 02:02:18;;;;;;;1.80;0.90;;;16.00;99.90;;;;;;5004038;28;20057;-79
2023/07/16 02:04:45;;;;;;;2.50;1.23;;;16.00;99.90;;;;;;5006095;28;20061;-79
2023/07/16 02:07:12;;;;;;;3.97;1.50;;;16.00;99.90;;;;;;5009105;28;20048;-79
2023/07/16 02:09:40;;;;;;;4.75;2.17;;;16.00;99.90;;;;;;5005548;28;20060;-78
2023/07/16 02:12:07;;;;;;;5.93;1.70;;;16.00;99.90;;;;;;5014880;28;20076;-79
2023/07/16 02:14:34;;;;;;;5.25;1.75;;;15.90;99.90;;;;;;5033942;28;20508;-79
2023/07/16 02:17:00;;;;;;;3.47;1.40;;;15.90;99.90;;;;;;5004816;28;20045;-79
2023/07/16 02:19:27;;;;;;;3.25;1.30;;;15.90;99.90;;;;;;5006064;28;20053;-80
2023/07/16 02:21:54;;;;;;;4.47;1.95;;;15.80;99.90;;;;;;4982457;28;20513;-78
2023/07/16 02:24:21;;;;;;;2.38;1.25;;;15.90;99.90;;;;;;5021096;28;20065;-79
2023/07/16 02:26:48;;;;;;;2.42;1.25;;;15.90;99.90;;;;;;4992308;28;20045;-79
2023/07/16 02:29:15;;;;;;;4.35;1.40;;;15.80;99.90;;;;;;5002976;28;20045;-79
2023/07/16 02:31:45;;;;;;;3.75;1.25;;;15.80;99.90;;;;;;4997075;28;20085;-78
2023/07/16 02:34:12;;;;;;;3.80;1.42;;;15.80;99.90;;;;;;5031112;28;20048;-79
2023/07/16 02:36:39;;;;;;;3.20;1.13;;;15.80;99.90;;;;;;5029602;28;20075;-79
2023/07/16 02:39:06;;;;;;;4.88;1.60;;;15.80;99.90;;;;;;5012291;28;20048;-79
2023/07/16 02:41:33;;;;;;;3.10;1.40;;;15.70;99.90;;;;;;5004767;28;20131;-79
2023/07/16 02:44:01;;;;;;;3.97;1.65;;;15.70;99.90;;;;;;5017963;28;20049;-79
2023/07/16 02:46:28;;;;;;;2.13;1.33;;;15.70;99.90;;;;;;5006681;28;20449;-79
2023/07/16 02:48:54;;;;;;;3.92;1.50;;;15.80;99.90;;;;;;5004685;28;20598;-79
2023/07/16 02:51:22;;;;;;;2.35;0.95;;;15.70;99.90;;;;;;5025519;28;20088;-79
2023/07/16 02:53:49;;;;;;;2.58;1.30;;;15.70;99.90;;;;;;5042819;28;20465;-79
2023/07/16 02:56:16;;;;;;;5.07;2.00;;;15.70;99.90;;;;;;4983104;28;20546;-78
2023/07/16 02:58:43;;;;;;;3.67;1.48;;;15.70;99.90;;;;;;4996879;28;20685;-78
2023/07/16 03:01:10;;;;;;;3.60;1.60;;;15.60;99.90;;;;;;5024652;28;20554;-79
2023/07/16 03:03:37;;;;;;;1.85;1.05;;;15.60;99.90;;;;;;5016042;28;20059;-78
2023/07/16 03:06:04;;;;;;;2.92;1.27;;;15.60;99.90;;;;;;5019291;28;20083;-78
2023/07/16 03:08:31;;;;;;;4.03;1.30;;;15.60;99.90;;;;;;5010340;28;20049;-79
2023/07/16 03:10:58;;;;;;;3.42;1.17;;;15.50;99.90;;;;;;5007220;28;20057;-79
2023/07/16 03:13:25;;;;;;;2.58;1.17;;;15.50;99.90;;;;;;5013919;28;20557;-78
2023/07/16 03:15:52;;;;;;;3.03;1.23;;;15.50;99.90;;;;;;5008853;28;20060;-79
2023/07/16 03:18:19;;;;;;;3.65;1.02;;;15.50;99.90;;;;;;5025893;28;20076;-79
2023/07/16 03:20:46;;;;;;;2.72;1.00;;;15.50;99.90;;;;;;5040149;28;20050;-79
2023/07/16 03:23:13;;;;;;;3.92;1.88;;;15.50;99.90;;;;;;5008336;28;20091;-79
2023/07/16 03:25:40;;;;;;;2.38;1.30;;;15.50;99.90;;;;;;5000706;28;20103;-79
2023/07/16 03:28:06;;;;;;;3.50;1.20;;;15.50;99.90;;;;;;5023893;28;20131;-79
2023/07/16 03:30:33;;;;;;;3.47;1.38;;;15.40;99.90;;;;;;5001072;28;20084;-79
2023/07/16 03:33:00;;;;;;;2.50;1.05;;;15.40;99.90;;;;;;4981910;28;20692;-79
2023/07/16 03:35:27;;;;;;;2.20;1.05;;;15.40;99.90;;;;;;4991296;28;20068;-79
2023/07/16 03:37:54;;;;;;;2.03;0.95;;;15.30;99.90;;;;;;5006962;28;20123;-79
2023/07/16 03:40:24;;;;;;;3.38;1.05;;;15.30;99.90;;;;;;4997519;28;20560;-79
2023/07/16 03:42:51;;;;;;;2.00;1.00;;;15.30;99.90;;;;;;4988232;28;20397;-79
2023/07/16 03:45:18;;;;;;;2.67;1.10;;;15.20;99.90;;;;;;5001360;28;20061;-79
2023/07/16 03:47:45;;;;;;;2.35;1.02;;;15.20;99.90;;;;;;5008111;28;20046;-79
2023/07/16 03:50:12;;;;;;;1.95;0.88;;;15.20;99.90;;;;;;4991632;28;20057;-79
2023/07/16 03:52:39;;;;;;;3.00;1.30;;;15.20;99.90;;;;;;5007960;28;20595;-79
2023/07/16 03:55:06;;;;;;;4.25;1.27;;;15.10;99.90;;;;;;4987864;28;20493;-79
2023/07/16 03:57:33;;;;;;;4.55;1.35;;;15.10;99.90;;;;;;4986131;28;20077;-82
2023/07/16 04:00:01;;;;;;;1.70;0.90;;;15.10;99.90;;;;;;4997186;28;20073;-81
2023/07/16 04:02:27;;;;;;;2.88;1.23;;;15.10;99.90;;;;;;5010519;28;20053;-80
2023/07/16 04:04:54;;;;;;;1.98;1.13;;;15.10;99.90;;;;;;4989664;28;20068;-79
2023/07/16 04:07:21;;;;;;;4.47;1.60;;;15.10;99.90;;;;;;5006247;28;20482;-79
2023/07/16 04:09:49;;;;;;;3.67;1.40;;;15.00;99.90;;;;;;4991684;28;20056;-79
2023/07/16 04:12:16;;;;;;;1.98;1.20;;;15.10;99.90;;;;;;4999858;28;20049;-79
2023/07/16 04:14:43;;;;;;;2.55;1.27;;;15.00;99.90;;;;;;5011348;28;20046;-79
2023/07/16 04:17:09;;;;;;;3.47;1.92;;;15.00;99.90;;;;;;4988246;28;20072;-79
2023/07/16 04:19:36;;;;;;;3.35;1.55;;;15.00;99.90;;;;;;5025679;28;20057;-79
2023/07/16 04:22:03;;;;;;;2.53;1.00;;;15.00;99.90;;;;;;4987571;28;20049;-79
2023/07/16 04:24:30;;;;;;;3.25;1.30;;;15.00;99.90;;;;;;4997420;28;20189;-79
2023/07/16 04:26:58;;;;;;;4.85;1.45;;;15.00;99.90;;;;;;5004447;28;20046;-79
2023/07/16 04:29:25;;;;;;;2.63;1.17;;;15.00;99.90;;;;;;5001396;28;20061;-79
2023/07/16 04:31:52;;;;;;;3.13;1.40;;;14.90;99.90;;;;;;4983585;28;20061;-79
2023/07/16 04:34:19;;;;;;;2.65;1.10;;;14.90;99.90;;;;;;5018246;28;20046;-79
2023/07/16 04:36:45;;;;;;;3.72;1.35;;;14.90;99.90;;;;;;5021106;28;20061;-79
2023/07/16 04:39:12;;;;;;;2.88;1.17;;;14.90;99.90;;;;;;5013209;28;20073;-79
2023/07/16 04:41:39;;;;;;;2.60;1.20;;;14.90;99.90;;;;;;5039157;28;20048;-79
2023/07/16 04:44:06;;;;;;;3.25;1.58;;;14.90;99.90;;;;;;5021874;28;20416;-79
2023/07/16 04:46:33;;;;;;;2.95;1.48;;;14.90;99.90;;;;;;5013571;28;20375;-79
2023/07/16 04:49:01;;;;;;;3.08;1.50;;;14.90;99.90;;;;;;5030704;28;20049;-78
2023/07/16 04:51:28;;;;;;;3.70;1.52;;;14.90;99.90;;;;;;5017896;28;20053;-79
2023/07/16 04:53:55;;;;;;;2.90;1.33;;;14.90;99.90;;;;;;5029373;28;20060;-79
2023/07/16 04:56:21;;;;;;;3.08;1.40;;;14.90;99.90;;;;;;5006864;28;20056;-79
2023/07/16 04:58:48;;;;;;;3.63;1.30;;;14.90;99.90;;;;;;4998946;28;20064;-79
2023/07/16 05:01:15;;;;;;;4.03;1.42;;;14.90;99.90;;;;;;5020855;28;20052;-79
2023/07/16 05:03:42;;;;;;;4.05;1.58;;;14.90;99.90;;;;;;5014493;28;20052;-79
2023/07/16 05:06:09;;;;;;;3.30;0.90;;;15.00;99.90;;;;;;5002358;28;20955;-79
2023/07/16 05:08:36;;;;;;;3.25;1.42;;;15.00;99.90;;;;;;4986868;28;20061;-79
2023/07/16 05:11:02;;;;;;;3.63;1.27;;;15.00;99.90;;;;;;4986389;28;20053;-78
2023/07/16 05:13:29;;;;;;;3.90;1.10;;;15.00;99.90;;;;;;5008916;28;20070;-79
2023/07/16 05:15:56;;;;;;;4.20;1.27;;;15.00;99.90;;;;;;5035459;28;20052;-79
2023/07/16 05:18:23;;;;;;;3.78;1.40;;;15.00;99.90;;;;;;5016022;28;20073;-79
2023/07/16 05:20:50;;;;;;;2.30;1.30;;;15.00;99.90;;;;;;5028176;28;20060;-79
2023/07/16 05:23:17;;;;;;;2.97;1.67;;;15.00;99.90;;;;;;5027141;28;20446;-79
2023/07/16 05:25:48;;;;;;;4.13;1.98;;;15.10;99.90;;;;;;4989024;28;20506;-79
2023/07/16 05:28:15;;;;;;;2.65;1.05;;;15.10;99.90;;;;;;5002977;28;20076;-79
2023/07/16 05:30:42;;;;;;;4.57;1.20;;;15.10;99.90;;;;;;5025393;28;20044;-78
2023/07/16 05:33:10;;;;;;;2.92;1.45;;;15.10;99.90;;;;;;4992547;28;20076;-79
2023/07/16 05:35:38;;;;;;;3.13;1.52;;;15.20;99.90;;;;;;5004946;28;20052;-79
2023/07/16 05:38:05;;;;;;;3.90;1.50;;;15.20;99.90;;;;;;4989078;28;20045;-81
2023/07/16 05:40:32;;;;;;;2.92;1.33;;;15.20;99.90;;;;;;5006475;28;20514;-79
2023/07/16 05:42:59;;;;;;;3.80;1.42;;;15.20;99.90;;;;;;5005278;28;20432;-78
2023/07/16 05:45:26;;;;;;;3.80;1.48;;;15.20;99.90;;;;;;5017876;28;20132;-79
2023/07/16 05:47:52;;;;;;;2.95;1.23;;;15.20;99.90;;;;;;5013284;28;20047;-78
2023/07/16 05:50:19;;;;;;;3.45;1.10;;;15.30;99.90;;;;;;5018337;28;20053;-78
2023/07/16 05:52:48;;;;;;;4.05;1.35;;;15.30;99.90;;;;;;5004095;28;20317;-78
2023/07/16 05:55:15;;;;;;;2.15;0.88;;;15.30;99.90;;;;;;4981807;28;20134;-78
2023/07/16 05:57:42;;;;;;;4.38;1.50;;;15.40;99.90;;;;;;4994033;28;20048;-78
2023/07/16 06:00:10;;;;;;;5.68;1.48;;;15.40;99.90;;;;;;5002737;28;20060;-78
2023/07/16 06:02:37;;;;;;;2.38;1.05;;;15.50;99.90;;;;;;5012308;28;20484;-79
2023/07/16 06:05:04;;;;;;;4.20;1.38;;;15.50;99.90;;;;;;5015509;28;20077;-78
2023/07/16 06:07:31;;;;;;;2.50;1.05;;;15.50;99.90;;;;;;4984384;28;20131;-78
2023/07/16 06:09:58;;;;;;;2.40;1.10;;;15.60;99.90;;;;;;5033589;28;20563;-78
2023/07/16 06:12:25;;;;;;;2.67;1.40;;;15.70;99.90;;;;;;5019523;28;20049;-79
2023/07/16 06:14:53;;;;;;;2.13;1.23;;;15.70;99.90;;;;;;5008273;28;20435;-78
2023/07/16 06:17:20;;;;;;;3.72;1.30;;;15.70;99.90;;;;;;5003836;28;20049;-79
2023/07/16 06:19:49;;;;;;;3.25;1.33;;;15.80;99.90;;;;;;5041855;28;20094;-79
2023/07/16 06:22:17;;;;;;;2.22;1.20;;;15.80;99.90;;;;;;5005163;28;20056;-77
2023/07/16 06:24:43;;;;;;;2.00;1.08;;;15.90;99.90;;;;;;5002810;28;20059;-78
2023/07/16 06:27:10;;;;;;;3.30;1.67;;;16.00;99.90;;;;;;5026840;28;20045;-77
2023/07/16 06:29:37;;;;;;;2.63;1.13;;;16.00;99.90;;;;;;4982442;28;20476;-80
2023/07/16 06:32:06;;;;;;;2.85;1.20;;;16.00;99.90;;;;;;4998419;28;20060;-78
2023/07/16 06:34:33;;;;;;;2.08;0.85;;;16.10;99.90;;;;;;5008108;28;20052;-80
2023/07/16 06:37:00;;;;;;;6.05;1.50;;;16.20;99.90;;;;;;5020899;28;20072;-79
2023/07/16 06:39:27;;;;;;;4.28;1.10;;;16.30;99.90;;;;;;5005540;28;20049;-78
2023/07/16 06:41:54;;;;;;;4.55;1.35;;;16.30;99.90;;;;;;5008387;28;20061;-79
2023/07/16 06:44:22;;;;;;;1.77;0.90;;;16.30;99.90;;;;;;5007212;28;20050;-79
2023/07/16 06:46:49;;;;;;;6.05;1.80;;;16.40;99.90;;;;;;4989788;28;20083;-80
2023/07/16 06:49:16;;;;;;;3.45;1.20;;;16.40;99.90;;;;;;5002296;28;20128;-81
2023/07/16 06:51:43;;;;;;;1.77;0.95;;;16.50;99.90;;;;;;5012528;28;20067;-80
2023/07/16 06:54:09;;;;;;;4.72;1.40;;;16.50;99.90;;;;;;5005989;28;20050;-80
2023/07/16 06:56:36;;;;;;;3.38;1.65;;;16.60;99.90;;;;;;5001781;28;20104;-79
2023/07/16 06:59:03;;;;;;;3.13;1.25;;;16.60;99.90;;;;;;5009246;28;20044;-80
2023/07/16 07:01:30;;;;;;;4.38;1.73;;;16.60;99.90;;;;;;5018834;28;20048;-80
2023/07/16 07:03:57;;;;;;;4.07;1.60;;;16.70;99.90;;;;;;5021888;28;20653;-80
2023/07/16 07:06:24;;;;;;;3.78;1.38;;;16.70;99.90;;;;;;5015144;28;20053;-81
2023/07/16 07:08:51;;;;;;;3.05;1.02;;;16.80;99.90;;;;;;4985538;28;20041;-80
2023/07/16 07:11:18;;;;;;;2.97;1.10;;;16.80;99.90;;;;;;5017233;28;20049;-81
2023/07/16 07:13:45;;;;;;;3.40;0.90;;;16.90;99.90;;;;;;5013807;28;20041;-80
2023/07/16 07:16:12;;;;;;;4.57;1.08;;;16.90;99.90;;;;;;5009269;28;20041;-79
2023/07/16 07:18:40;;;;;;;2.97;1.27;;;17.00;99.90;;;;;;5014778;28;20144;-80
2023/07/16 07:21:07;;;;;;;3.25;1.58;;;17.10;99.90;;;;;;4985621;28;20049;-79
2023/07/16 07:23:33;;;;;;;2.25;1.40;;;17.10;99.90;;;;;;4985151;28;20107;-78
2023/07/16 07:26:00;;;;;;;2.72;1.35;;;17.20;99.90;;;;;;5010560;28;20057;-80
2023/07/16 07:28:27;;;;;;;2.83;1.20;;;17.20;99.90;;;;;;5002449;28;20048;-82
2023/07/16 07:30:54;;;;;;;4.32;1.48;;;17.30;99.90;;;;;;4996377;28;20099;-81
2023/07/16 07:33:22;;;;;;;4.05;1.55;;;17.20;99.90;;;;;;5015638;28;20050;-80
2023/07/16 07:35:49;;;;;;;4.80;1.48;;;17.30;99.90;;;;;;4987417;28;20045;-79
2023/07/16 07:38:15;;;;;;;2.63;1.20;;;17.30;99.90;;;;;;5008844;28;20204;-82
2023/07/16 07:40:43;;;;;;;2.92;1.08;;;17.40;99.90;;;;;;5025024;28;20115;-85
2023/07/16 07:43:10;;;;;;;3.88;1.40;;;17.60;99.90;;;;;;4988815;28;20131;-82
2023/07/16 07:45:37;;;;;;;3.38;1.40;;;17.70;99.90;;;;;;4991799;28;20480;-82
2023/07/16 07:48:04;;;;;;;3.50;1.17;;;17.80;99.90;;;;;;4997856;28;20057;-82
2023/07/16 07:50:31;;;;;;;1.85;0.93;;;17.80;99.90;;;;;;5042566;28;20056;-82
2023/07/16 07:52:58;;;;;;;3.55;1.30;;;17.80;99.90;;;;;;4991659;28;20328;-83
2023/07/16 07:55:25;;;;;;;2.67;1.20;;;17.80;99.90;;;;;;5021037;28;20102;-82
2023/07/16 07:57:52;;;;;;;2.42;1.05;;;17.80;99.90;;;;;;5026657;28;20448;-81
2023/07/16 08:00:20;;;;;;;1.95;0.85;;;17.70;99.90;;;;;;4988078;28;20056;-82
2023/07/16 08:02:47;;;;;;;2.25;0.63;;;17.80;99.90;;;;;;4992727;28;20145;-82
2023/07/16 08:05:17;;;;;;;2.42;1.00;;;17.90;99.90;;;;;;5014054;28;20052;-82
2023/07/16 08:07:44;;;;;;;2.95;1.00;;;18.00;99.90;;;;;;5029682;28;20052;-82
2023/07/16 08:10:11;;;;;;;1.52;0.98;;;18.00;99.90;;;;;;4998205;28;20536;-81
2023/07/16 08:12:38;;;;;;;2.30;0.80;;;18.00;99.90;;;;;;4995391;28;20053;-82
2023/07/16 08:15:07;;;;;;;3.05;1.20;;;18.00;99.90;;;;;;5030314;28;20053;-82
2023/07/16 08:17:34;;;;;;;2.05;1.00;;;18.10;99.90;;;;;;4983680;28;20059;-82
2023/07/16 08:20:02;;;;;;;3.45;0.93;;;18.20;99.90;;;;;;5026388;28;20096;-82
2023/07/16 08:22:29;;;;;;;3.33;1.42;;;18.40;99.90;;;;;;4989923;28;20045;-82
2023/07/16 08:24:56;;;;;;;3.08;1.30;;;18.60;99.90;;;;;;5018737;28;20053;-82
2023/07/16 08:27:22;;;;;;;4.65;1.52;;;18.70;99.90;;;;;;5003209;28;21608;-82
2023/07/16 08:29:49;;;;;;;2.28;0.80;;;18.80;99.90;;;;;;5003054;28;20059;-83
2023/07/16 08:32:16;;;;;;;3.33;1.05;;;18.90;99.90;;;;;;4983001;28;20057;-82
2023/07/16 08:34:43;;;;;;;2.58;0.73;;;19.00;99.90;;;;;;5026737;28;20127;-82
2023/07/16 08:37:10;;;;;;;3.20;1.10;;;18.90;99.90;;;;;;4996839;28;20068;-82
2023/07/16 08:39:37;;;;;;;3.47;1.20;;;18.90;99.90;;;;;;5025969;28;20064;-83
2023/07/16 08:42:04;;;;;;;3.83;1.20;;;19.00;99.90;;;;;;5019605;28;20053;-83
2023/07/16 08:44:31;;;;;;;2.65;1.10;;;19.00;99.90;;;;;;4999966;28;20075;-83
2023/07/16 08:46:59;;;;;;;2.40;1.10;;;19.00;99.90;;;;;;4986371;28;20064;-83
2023/07/16 08:49:26;;;;;;;2.78;1.25;;;19.00;99.90;;;;;;5013053;28;20049;-83
2023/07/16 08:51:53;;;;;;;2.78;1.10;;;19.00;99.90;;;;;;5019393;28;20065;-82
2023/07/16 08:54:19;;;;;;;1.75;1.02;;;18.90;99.90;;;;;;4991600;28;20049;-81
2023/07/16 08:56:47;;;;;;;2.42;1.08;;;18.90;99.90;;;;;;4999549;28;20494;-83
2023/07/16 08:59:17;;;;;;;3.33;1.63;;;19.10;99.90;;;;;;4991289;28;20093;-84
2023/07/16 09:01:46;;;;;;;3.97;1.33;;;19.10;99.90;;;;;;4977249;28;20092;-81
2023/07/16 09:04:13;;;;;;;1.55;0.75;;;19.00;99.90;;;;;;4999029;28;20393;-81
2023/07/16 09:06:40;;;;;;;2.78;1.40;;;19.00;99.90;;;;;;4996250;28;20137;-82
2023/07/16 09:09:07;;;;;;;2.42;1.15;;;19.00;99.90;;;;;;4997739;28;20057;-82
2023/07/16 09:11:34;;;;;;;2.28;1.00;;;19.00;99.90;;;;;;5005690;28;20048;-82
2023/07/16 09:14:04;;;;;;;1.45;0.95;;;19.10;99.90;;;;;;4999137;28;20050;-83
2023/07/16 09:16:34;;;;;;;1.67;1.00;;;19.30;99.90;;;;;;5001505;28;20594;-82
2023/07/16 09:19:10;;;;;;;2.05;1.08;;;19.30;99.90;;;;;;4992623;28;20103;-83
2023/07/16 09:21:37;;;;;;;3.97;1.40;;;19.20;99.90;;;;;;4999893;28;20045;-82
2023/07/16 09:24:08;;;;;;;1.88;0.85;;;19.20;99.90;;;;;;4995424;28;20049;-82
2023/07/16 09:26:38;;;;;;;2.10;1.02;;;19.20;99.90;;;;;;4978514;28;20045;-82
2023/07/16 09:29:07;;;;;;;2.95;1.30;;;19.30;99.90;;;;;;4997442;28;20052;-80
2023/07/16 09:31:34;;;;;;;1.48;0.98;;;19.30;99.90;;;;;;4988984;28;20442;-82
2023/07/16 09:34:01;;;;;;;2.22;0.80;;;19.60;99.90;;;;;;4992979;28;20080;-82
2023/07/16 09:36:28;;;;;;;1.80;0.70;;;19.70;99.90;;;;;;4972025;28;20128;-82
2023/07/16 09:38:55;;;;;;;1.58;0.88;;;19.80;99.90;;;;;;4994179;28;20045;-82
2023/07/16 09:41:22;;;;;;;2.22;0.90;;;19.70;99.90;;;;;;4975337;28;20487;-83
2023/07/16 09:43:49;;;;;;;2.33;1.10;;;19.80;99.80;;;;;;4974267;28;20068;-82
2023/07/16 09:46:16;;;;;;;2.33;1.25;;;19.80;99.90;;;;;;4972631;28;20050;-81
2023/07/16 09:48:43;;;;;;;2.05;1.00;;;20.00;99.90;;;;;;4989427;28;20046;-83
2023/07/16 09:51:12;;;;;;;2.50;1.08;;;20.10;99.50;;;;;;4989274;28;20050;-82
2023/07/16 09:53:41;;;;;;;1.65;0.75;;;20.10;99.40;;;;;;4998250;28;20707;-83
2023/07/16 09:56:10;;;;;;;2.70;1.40;;;20.40;99.50;;;;;;4982656;28;20042;-82
2023/07/16 09:58:37;;;;;;;1.85;0.80;;;20.50;98.60;;;;;;4975700;28;20057;-82
2023/07/16 10:01:04;;;;;;;2.00;0.90;;;20.60;98.10;;;;;;4973074;28;20049;-80
2023/07/16 10:03:31;;;;;;;1.73;0.70;;;20.80;98.50;;;;;;4983175;28;20545;-82
2023/07/16 10:06:08;;;;;;;2.20;0.88;;;21.00;98.20;;;;;;4989442;28;20236;-82
2023/07/16 10:08:35;;;;;;;1.95;0.95;;;21.10;98.20;;;;;;4979093;28;20164;-83
2023/07/16 10:11:02;;;;;;;2.22;0.73;;;21.10;98.10;;;;;;4976042;28;20057;-82
2023/07/16 10:13:29;;;;;;;1.45;0.73;;;21.10;98.30;;;;;;4961788;28;20488;-82
2023/07/16 10:15:57;;;;;;;1.55;0.80;;;21.20;98.50;;;;;;4973407;28;20118;-83
2023/07/16 10:18:31;;;;;;;4.05;0.95;;;21.10;98.50;;;;;;4978357;28;20568;-83
2023/07/16 10:21:07;;;;;;;2.17;1.00;;;20.90;98.90;;;;;;4977264;28;20554;-83
2023/07/16 10:23:38;;;;;;;1.98;0.93;;;21.00;99.40;;;;;;4979315;28;20469;-82
2023/07/16 10:26:06;;;;;;;2.95;0.98;;;21.00;98.70;;;;;;4986446;28;20050;-76
2023/07/16 10:28:33;;;;;;;3.42;1.60;;;20.90;97.90;;;;;;4986320;28;20053;-78
2023/07/16 10:31:00;;;;;;;3.17;1.17;;;20.80;99.50;;;;;;4993600;28;20123;-76
2023/07/16 10:33:27;;;;;;;2.22;1.27;;;21.00;99.90;;;;;;5025073;28;20225;-75
2023/07/16 10:35:56;;;;;;;1.95;0.90;;;21.30;99.90;;;;;;5007787;28;20493;-83
2023/07/16 10:38:23;;;;;;;2.47;1.00;;;21.40;99.90;;;;;;5004565;28;20053;-84
2023/07/16 10:40:50;;;;;;;3.47;1.65;;;21.60;99.90;;;;;;4983052;28;20076;-82
2023/07/16 10:43:17;;;;;;;2.00;1.05;;;21.70;99.90;;;;;;4997144;28;20055;-83
2023/07/16 10:45:47;;;;;;;2.05;0.90;;;21.80;99.50;;;;;;4982585;28;20045;-84
2023/07/16 10:48:15;;;;;;;2.47;1.23;;;21.60;99.40;;;;;;4986670;28;20560;-84
2023/07/16 10:50:42;;;;;;;2.17;1.10;;;21.50;99.90;;;;;;4993105;28;20128;-84
2023/07/16 10:53:11;;;;;;;3.22;1.75;;;21.50;99.40;;;;;;5014794;28;20053;-86
2023/07/16 10:55:38;;;;;;;1.50;0.93;;;21.60;99.20;;;;;;4996432;28;20053;-83
2023/07/16 10:58:06;;;;;;;1.58;0.95;;;21.80;99.00;;;;;;4991640;28;20184;-83
2023/07/16 11:00:37;;;;;;;2.90;1.20;;;22.00;98.70;;;;;;5003573;28;20049;-83
2023/07/16 11:03:04;;;;;;;2.28;1.20;;;22.00;98.70;;;;;;5006217;28;20063;-82
2023/07/16 11:05:32;;;;;;;4.15;1.48;;;22.00;98.50;;;;;;5007161;28;20057;-85
2023/07/16 11:07:59;;;;;;;3.10;1.20;;;21.70;98.40;;;;;;5027403;28;20053;-82
2023/07/16 11:10:28;;;;;;;2.92;1.13;;;21.60;98.60;;;;;;5018915;28;20057;-81
2023/07/16 11:12:55;;;;;;;1.23;0.82;;;21.90;99.10;;;;;;5008065;28;20045;-82
2023/07/16 11:15:35;;;;;;;2.13;0.80;;;22.00;98.80;;;;;;4987247;28;20124;-82
2023/07/16 11:18:02;;;;;;;2.00;0.95;;;22.40;99.00;;;;;;4986259;28;20060;-82
2023/07/16 11:20:30;;;;;;;1.90;0.90;;;22.40;98.90;;;;;;5014612;28;20053;-82
2023/07/16 11:22:58;;;;;;;3.13;1.15;;;22.20;98.40;;;;;;5003199;28;20063;-80
2023/07/16 11:25:25;;;;;;;4.00;1.05;;;22.00;98.30;;;;;;5002946;28;20057;-76
2023/07/16 11:27:55;;;;;;;1.80;0.82;;;22.40;98.70;;;;;;5030749;28;20060;-75
2023/07/16 11:30:25;;;;;;;2.28;0.88;;;22.70;97.90;;;;;;5028701;28;20061;-74
2023/07/16 11:32:52;;;;;;;2.90;1.10;;;23.00;97.70;;;;;;5016828;28;20144;-75
2023/07/16 11:35:20;;;;;;;1.65;0.80;;;23.10;97.10;;;;;;5031418;28;20082;-75
2023/07/16 11:37:47;;;;;;;1.98;1.00;;;23.20;97.00;;;;;;4995526;28;20135;-75
2023/07/16 11:40:16;;;;;;;3.17;1.05;;;23.40;96.90;;;;;;5004858;28;20865;-75
2023/07/16 11:42:43;;;;;;;2.75;1.20;;;23.70;97.00;;;;;;4992728;28;20152;-75
2023/07/16 11:45:20;;;;;;;2.63;1.27;;;23.30;96.50;;;;;;5027079;28;20045;-76
2023/07/16 11:47:47;;;;;;;2.15;1.00;;;23.50;96.80;;;;;;4993242;28;20115;-75
2023/07/16 11:50:14;;;;;;;2.42;1.17;;;23.40;96.60;;;;;;5028839;28;20056;-75
2023/07/16 11:52:41;;;;;;;3.03;1.02;;;23.60;96.30;;;;;;5019038;28;20052;-75
2023/07/16 11:55:08;;;;;;;5.00;1.73;;;23.70;96.30;;;;;;5001610;28;20049;-77
2023/07/16 11:57:35;;;;;;;3.40;1.75;;;23.90;96.10;;;;;;5028656;28;20057;-75
2023/07/16 12:00:03;;;;;;;3.28;1.23;;;24.00;95.20;;;;;;5021748;28;20048;-75
2023/07/16 12:02:30;;;;;;;2.83;1.20;;;24.10;95.20;;;;;;5028998;28;20068;-76
2023/07/16 12:04:57;;;;;;;3.88;1.30;;;24.20;94.20;;;;;;5035757;28;20075;-75
2023/07/16 12:07:32;;;;;;;3.15;0.90;;;24.50;94.20;;;;;;5019573;28;20468;-77
2023/07/16 12:09:59;;;;;;;2.58;1.05;;;24.90;93.30;;;;;;5024793;28;20076;-76
2023/07/16 12:12:26;;;;;;;1.15;0.60;;;25.30;93.10;;;;;;5020797;28;20099;-75
2023/07/16 12:14:52;;;;;;;1.80;0.93;;;25.30;93.60;;;;;;5022329;28;20138;-75
2023/07/16 12:17:19;;;;;;;1.23;0.77;;;25.30;94.30;;;;;;5022165;28;20515;-75
2023/07/16 12:19:46;;;;;;;2.00;0.80;;;25.30;94.10;;;;;;5021666;28;20067;-81
2023/07/16 12:22:14;;;;;;;2.17;1.00;;;25.30;93.60;;;;;;5024748;28;20049;-83
2023/07/16 12:24:41;;;;;;;1.70;1.00;;;25.30;93.60;;;;;;5006554;28;21273;-81
2023/07/16 12:27:08;;;;;;;2.97;1.38;;;25.00;93.40;;;;;;5007373;28;20045;-82
2023/07/16 12:29:35;;;;;;;1.70;0.90;;;24.90;93.40;;;;;;4979830;28;20050;-82
2023/07/16 12:32:03;;;;;;;2.03;0.90;;;24.70;93.60;;;;;;4997835;28;20141;-82
2023/07/16 12:34:30;;;;;;;1.92;0.90;;;25.00;93.30;;;;;;4984993;28;20065;-82
2023/07/16 12:36:56;;;;;;;2.35;1.23;;;25.20;92.90;;;;;;5009500;28;20577;-83
2023/07/16 12:39:23;;;;;;;1.17;0.80;;;25.30;92.30;;;;;;4986569;28;20605;-82
2023/07/16 12:41:50;;;;;;;2.10;0.90;;;25.50;93.20;;;;;;4982536;28;20052;-82
2023/07/16 12:44:17;;;;;;;1.90;1.02;;;25.60;92.10;;;;;;5012463;28;20109;-82
2023/07/16 12:46:44;;;;;;;1.10;0.80;;;25.50;91.20;;;;;;5006757;28;20042;-82
2023/07/16 12:49:10;;;;;;;2.10;1.08;;;25.50;92.00;;;;;;4977072;28;20053;-82